createdAt,value
2023-04-21T00:01:29.915Z,101956.88
2023-04-21T00:04:33.676Z,101945.59
2023-04-21T00:07:39.460Z,101938.63
2023-04-21T00:10:43.210Z,101944.75
2023-04-21T00:13:48.164Z,101944.75
2023-04-21T00:16:52.819Z,101947.38
2023-04-21T00:19:56.606Z,101939.53
2023-04-21T00:23:01.023Z,101941.28
2023-04-21T00:26:04.493Z,101937.81
2023-04-21T00:29:09.405Z,101932.63
2023-04-21T00:32:12.971Z,101926.53
2023-04-21T00:35:16.463Z,101936.97
2023-04-21T00:38:19.906Z,101928.31
2023-04-21T00:41:23.727Z,101923.06
2023-04-21T00:44:28.603Z,101920.50
2023-04-21T00:47:32.427Z,101925.72
2023-04-21T00:50:36.845Z,101917.84
2023-04-21T00:53:41.115Z,101913.53
2023-04-21T00:56:45.135Z,101899.59
2023-04-21T00:59:52.017Z,101908.31
2023-04-21T01:02:56.314Z,101904.84
2023-04-21T01:06:00.580Z,101910.09
2023-04-21T01:09:05.325Z,101903.13
2023-04-21T01:12:11.197Z,101899.63
2023-04-21T01:15:18.811Z,101897.03
2023-04-21T01:18:22.368Z,101885.72
2023-04-21T01:21:27.078Z,101890.09
2023-04-21T01:24:41.055Z,101890.97
2023-04-21T01:27:44.680Z,101895.31
2023-04-21T01:30:48.720Z,101887.47
2023-04-21T01:33:52.263Z,101881.41
2023-04-21T01:36:55.902Z,101886.63
2023-04-21T01:40:05.037Z,101884.91
2023-04-21T01:43:09.208Z,101885.75
2023-04-21T01:46:12.798Z,101880.56
2023-04-21T01:49:16.392Z,101877.06
2023-04-21T01:52:20.532Z,101864.03
2023-04-21T01:55:26.115Z,101872.75
2023-04-21T01:58:29.607Z,101870.16
2023-04-21T02:01:33.165Z,101868.41
2023-04-21T02:04:36.787Z,101871.03
2023-04-21T02:07:40.333Z,101868.44
2023-04-21T02:10:45.412Z,101866.69
2023-04-21T02:13:48.923Z,101859.72
2023-04-21T02:16:52.597Z,101871.91
2023-04-21T02:19:56.559Z,101865.81
2023-04-21T02:23:00.014Z,101871.91
2023-04-21T02:26:05.011Z,101868.41
2023-04-21T02:29:08.750Z,101869.31
2023-04-21T02:32:22.119Z,101867.56
2023-04-21T02:35:29.253Z,101865.81
2023-04-21T02:38:32.813Z,101867.53
2023-04-21T02:41:37.677Z,101862.34
2023-04-21T02:44:42.844Z,101873.63
2023-04-21T02:47:47.226Z,101862.38
2023-04-21T02:50:50.844Z,101865.81
2023-04-21T02:53:54.315Z,101866.69
2023-04-21T02:56:59.203Z,101866.72
2023-04-21T03:00:02.705Z,101862.34
2023-04-21T03:03:06.714Z,101861.50
2023-04-21T03:06:10.373Z,101856.28
2023-04-21T03:09:13.938Z,101851.94
2023-04-21T03:12:18.784Z,101858.91
2023-04-21T03:15:22.717Z,101850.19
2023-04-21T03:18:26.373Z,101839.78
2023-04-21T03:21:29.918Z,101844.09
2023-04-21T03:24:33.532Z,101837.16
2023-04-21T03:27:38.454Z,101844.97
2023-04-21T03:30:42.024Z,101835.41
2023-04-21T03:33:45.776Z,101832.81
2023-04-21T03:36:49.309Z,101837.13
2023-04-21T03:39:52.810Z,101837.13
2023-04-21T03:42:57.791Z,101839.75
2023-04-21T03:46:01.409Z,101843.22
2023-04-21T03:49:04.973Z,101845.81
2023-04-21T03:52:08.482Z,101848.41
2023-04-21T03:55:12.131Z,101849.28
2023-04-21T03:58:17.272Z,101855.38
2023-04-21T04:01:20.898Z,101851.91
2023-04-21T04:04:24.646Z,101851.03
2023-04-21T04:07:28.302Z,101853.66
2023-04-21T04:10:31.921Z,101850.16
2023-04-21T04:13:36.902Z,101854.53
2023-04-21T04:16:41.524Z,101857.13
2023-04-21T04:19:44.971Z,101847.56
2023-04-21T04:22:48.582Z,101856.25
2023-04-21T04:25:52.372Z,101853.63
2023-04-21T04:28:57.338Z,101851.94
2023-04-21T04:32:01.877Z,101847.59
2023-04-21T04:35:06.237Z,101855.41
2023-04-21T04:38:09.716Z,101853.66
2023-04-21T04:41:13.392Z,101858.00
2023-04-21T04:44:19.008Z,101863.19
2023-04-21T04:47:22.983Z,101866.66
2023-04-21T04:50:26.549Z,101867.53
2023-04-21T04:53:30.193Z,101873.59
2023-04-21T04:56:33.860Z,101872.72
2023-04-21T04:59:39.130Z,101881.38
2023-04-21T05:02:43.245Z,101875.25
2023-04-21T05:05:47.230Z,101882.19
2023-04-21T05:08:50.731Z,101878.69
2023-04-21T05:11:54.316Z,101872.53
2023-04-21T05:14:59.513Z,101870.78
2023-04-21T05:18:04.103Z,101871.63
2023-04-21T05:21:07.832Z,101867.25
2023-04-21T05:24:11.494Z,101864.56
2023-04-21T05:27:15.044Z,101869.72
2023-04-21T05:30:20.091Z,101860.06
2023-04-21T05:33:23.627Z,101857.31
2023-04-21T05:36:27.989Z,101860.59
2023-04-21T05:39:31.810Z,101856.13
2023-04-21T05:42:35.354Z,101861.22
2023-04-21T05:45:42.284Z,101860.06
2023-04-21T05:48:45.919Z,101860.69
2023-04-21T05:51:49.463Z,101861.44
2023-04-21T05:54:52.983Z,101851.56
2023-04-21T05:57:57.024Z,101859.47
2023-04-21T06:01:02.209Z,101853.06
2023-04-21T06:04:06.369Z,101841.38
2023-04-21T06:07:13.609Z,101841.25
2023-04-21T06:10:19.400Z,101831.34
2023-04-21T06:13:22.984Z,101844.34
2023-04-21T06:16:28.027Z,101823.19
2023-04-21T06:19:31.665Z,101829.41
2023-04-21T06:22:35.142Z,101832.38
2023-04-21T06:25:39.090Z,101827.31
2023-04-21T06:28:42.974Z,101818.72
2023-04-21T06:31:48.051Z,101824.16
2023-04-21T06:34:51.658Z,101820.66
2023-04-21T06:37:55.165Z,101827.13
2023-04-21T06:40:58.919Z,101814.16
2023-04-21T06:44:02.452Z,101810.88
2023-04-21T06:47:07.470Z,101811.72
2023-04-21T06:50:12.278Z,101806.97
2023-04-21T06:53:15.812Z,101810.25
2023-04-21T06:56:19.307Z,101801.56
2023-04-21T06:59:23.346Z,101812.16
2023-04-21T07:02:28.451Z,101809.72
2023-04-21T07:05:32.378Z,101821.44
2023-04-21T07:08:36.023Z,101810.66
2023-04-21T07:11:39.660Z,101810.09
2023-04-21T07:14:43.305Z,101801.38
2023-04-21T07:17:48.559Z,101799.69
2023-04-21T07:20:52.392Z,101797.78
2023-04-21T07:23:55.983Z,101800.13
2023-04-21T07:26:59.592Z,101800.97
2023-04-21T07:30:03.348Z,101789.50
2023-04-21T07:33:09.052Z,101789.66
2023-04-21T07:36:12.785Z,101791.88
2023-04-21T07:39:16.832Z,101778.31
2023-04-21T07:42:21.185Z,101776.13
2023-04-21T07:45:26.664Z,101769.56
2023-04-21T07:48:31.918Z,101785.03
2023-04-21T07:51:35.918Z,101771.44
2023-04-21T07:54:39.558Z,101767.00
2023-04-21T07:57:43.251Z,101765.72
2023-04-21T08:00:46.864Z,101769.53
2023-04-21T08:03:52.045Z,101764.47
2023-04-21T08:06:55.829Z,101760.09
2023-04-21T08:10:00.291Z,101754.19
2023-04-21T08:13:06.355Z,101768.63
2023-04-21T08:16:10.217Z,101753.81
2023-04-21T08:19:15.308Z,101750.44
2023-04-21T08:22:18.903Z,101756.88
2023-04-21T08:25:22.882Z,101758.72
2023-04-21T08:28:26.456Z,101750.19
2023-04-21T08:31:30.406Z,101755.09
2023-04-21T08:34:36.092Z,101746.19
2023-04-21T08:37:40.430Z,101744.53
2023-04-21T08:40:44.068Z,101749.31
2023-04-21T08:43:47.709Z,101747.09
2023-04-21T08:46:51.845Z,101747.38
2023-04-21T08:49:58.181Z,101742.75
2023-04-21T08:53:01.932Z,101738.50
2023-04-21T08:59:13.172Z,101737.88
2023-04-21T09:02:19.035Z,101734.91
2023-04-21T09:05:27.185Z,101719.88
2023-04-21T09:08:31.867Z,101721.53
2023-04-21T09:11:35.807Z,101709.19
2023-04-21T09:14:39.277Z,101712.91
2023-04-21T09:17:47.029Z,101709.69
2023-04-21T09:21:05.672Z,101708.81
2023-04-21T09:24:10.072Z,101711.66
2023-04-21T09:27:13.946Z,101693.19
2023-04-21T09:30:21.317Z,101699.22
2023-04-21T09:33:32.230Z,101695.31
2023-04-21T09:36:39.350Z,101698.84
2023-04-21T09:40:03.622Z,101682.19
2023-04-21T09:43:09.203Z,101686.63
2023-04-21T09:46:13.623Z,101684.56
2023-04-21T09:49:19.334Z,101691.28
2023-04-21T09:52:30.051Z,101671.72
2023-04-21T09:55:36.232Z,101676.94
2023-04-21T09:58:47.660Z,101677.03
2023-04-21T10:01:53.840Z,101664.84
2023-04-21T10:04:57.614Z,101666.56
2023-04-21T10:08:03.120Z,101660.00
2023-04-21T10:11:08.115Z,101675.75
2023-04-21T10:14:11.721Z,101658.28
2023-04-21T10:17:17.961Z,101657.81
2023-04-21T10:20:22.976Z,101651.25
2023-04-21T10:23:34.136Z,101648.28
2023-04-21T10:26:37.613Z,101647.56
2023-04-21T10:29:55.490Z,101650.53
2023-04-21T10:33:06.329Z,101639.81
2023-04-21T10:36:15.729Z,101637.44
2023-04-21T10:39:35.898Z,101627.88
2023-04-21T10:42:39.427Z,101631.56
2023-04-21T10:45:43.002Z,101611.75
2023-04-21T10:48:54.242Z,101611.22
2023-04-21T10:52:09.948Z,101605.16
2023-04-21T10:55:17.157Z,101601.13
2023-04-21T10:58:24.393Z,101593.78
2023-04-21T11:01:28.181Z,101592.59
2023-04-21T11:04:33.358Z,101590.53
2023-04-21T11:07:38.553Z,101591.63
2023-04-21T11:10:52.051Z,101581.63
2023-04-21T11:13:55.564Z,101573.50
2023-04-21T11:16:59.286Z,101571.78
2023-04-21T11:20:06.958Z,101567.47
2023-04-21T11:23:10.737Z,101568.75
2023-04-21T11:26:15.645Z,101557.44
2023-04-21T11:29:19.383Z,101546.81
2023-04-21T11:32:23.102Z,101547.56
2023-04-21T11:35:26.694Z,101543.00
2023-04-21T11:38:38.551Z,101533.25
2023-04-21T11:41:45.360Z,101548.69
2023-04-21T11:44:48.848Z,101532.41
2023-04-21T11:47:52.476Z,101524.03
2023-04-21T11:50:55.964Z,101522.75
2023-04-21T11:54:01.019Z,101520.38
2023-04-21T11:57:07.004Z,101519.63
2023-04-21T12:00:14.117Z,101517.06
2023-04-21T12:03:17.672Z,101523.50
2023-04-21T12:06:27.156Z,101514.53
2023-04-21T12:09:31.744Z,101504.28
2023-04-21T12:12:39.751Z,101508.91
2023-04-21T12:15:46.224Z,101501.31
2023-04-21T12:18:50.420Z,101508.59
2023-04-21T12:21:57.666Z,101500.97
2023-04-21T12:25:01.207Z,101491.09
2023-04-21T12:28:10.127Z,101482.31
2023-04-21T12:31:14.000Z,101484.81
2023-04-21T12:34:18.183Z,101468.19
2023-04-21T12:37:21.681Z,101480.50
2023-04-21T12:40:25.208Z,101469.34
2023-04-21T12:43:30.756Z,101469.91
2023-04-21T12:46:34.319Z,101466.00
2023-04-21T12:49:38.083Z,101461.81
2023-04-21T12:52:41.739Z,101464.88
2023-04-21T12:55:56.852Z,101462.31
2023-04-21T12:59:06.169Z,101442.94
2023-04-21T13:02:09.707Z,101445.75
2023-04-21T13:05:13.503Z,101433.53
2023-04-21T13:08:17.556Z,101441.69
2023-04-21T13:11:21.091Z,101432.44
2023-04-21T13:14:26.360Z,101424.47
2023-04-21T13:17:30.083Z,101431.38
2023-04-21T13:20:33.756Z,101427.69
2023-04-21T13:23:37.250Z,101426.44
2023-04-21T13:26:41.182Z,101411.09
2023-04-21T13:29:47.687Z,101406.06
2023-04-21T13:32:51.514Z,101417.81
2023-04-21T13:35:55.036Z,101391.91
2023-04-21T13:39:00.869Z,101399.22
2023-04-21T13:42:04.545Z,101373.47
2023-04-21T13:45:11.411Z,101387.38
2023-04-21T13:48:14.960Z,101376.72
2023-04-21T13:51:19.495Z,101373.06
2023-04-21T13:54:22.980Z,101367.81
2023-04-21T13:57:26.638Z,101369.88
2023-04-21T14:00:31.461Z,101354.72
2023-04-21T14:03:35.152Z,101365.69
2023-04-21T14:06:38.762Z,101356.50
2023-04-21T14:09:42.313Z,101346.34
2023-04-21T14:12:46.115Z,101328.84
2023-04-21T14:15:51.563Z,101337.88
2023-04-21T14:18:55.197Z,101335.75
2023-04-21T14:21:59.538Z,101335.09
2023-04-21T14:25:03.994Z,101327.00
2023-04-21T14:28:08.855Z,101328.50
2023-04-21T14:31:13.866Z,101315.03
2023-04-21T14:34:17.571Z,101318.38
2023-04-21T14:37:21.413Z,101312.59
2023-04-21T14:40:25.168Z,101315.91
2023-04-21T14:43:28.756Z,101310.56
2023-04-21T14:46:33.862Z,101318.06
2023-04-21T14:49:38.187Z,101311.19
2023-04-21T14:52:41.781Z,101318.63
2023-04-21T14:55:45.313Z,101311.75
2023-04-21T14:58:48.902Z,101307.53
2023-04-21T15:01:54.185Z,101298.00
2023-04-21T15:04:58.091Z,101297.38
2023-04-21T15:08:01.662Z,101296.53
2023-04-21T15:11:06.382Z,101288.41
2023-04-21T15:14:09.960Z,101281.06
2023-04-21T15:17:14.868Z,101278.59
2023-04-21T15:20:20.804Z,101283.31
2023-04-21T15:23:29.157Z,101283.56
2023-04-21T15:26:33.018Z,101275.47
2023-04-21T15:29:37.301Z,101277.63
2023-04-21T15:32:42.469Z,101270.44
2023-04-21T15:35:48.397Z,101262.00
2023-04-21T15:38:51.871Z,101251.00
2023-04-21T15:41:56.013Z,101261.31
2023-04-21T15:44:59.550Z,101256.75
2023-04-21T15:48:04.816Z,101254.09
2023-04-21T15:51:08.545Z,101239.66
2023-04-21T15:54:12.095Z,101250.56
2023-04-21T15:57:16.224Z,101234.97
2023-04-21T16:00:20.340Z,101227.72
2023-04-21T16:03:26.290Z,101231.25
2023-04-21T16:06:30.881Z,101224.38
2023-04-21T16:09:34.596Z,101230.03
2023-04-21T16:12:38.286Z,101225.72
2023-04-21T16:15:42.271Z,101227.47
2023-04-21T16:18:47.496Z,101215.19
2023-04-21T16:21:51.028Z,101215.38
2023-04-21T16:24:54.826Z,101216.91
2023-04-21T16:27:58.485Z,101210.97
2023-04-21T16:31:02.334Z,101219.41
2023-04-21T16:34:07.442Z,101211.00
2023-04-21T16:37:11.186Z,101217.47
2023-04-21T16:40:14.969Z,101211.28
2023-04-21T16:43:18.643Z,101205.47
2023-04-21T16:46:22.474Z,101198.22
2023-04-21T16:49:30.229Z,101202.81
2023-04-21T16:52:34.194Z,101189.63
2023-04-21T16:55:37.914Z,101198.59
2023-04-21T16:58:41.542Z,101195.16
2023-04-21T17:01:45.992Z,101199.84
2023-04-21T17:04:53.871Z,101190.25
2023-04-21T17:07:57.657Z,101190.34
2023-04-21T17:11:01.424Z,101186.09
2023-04-21T17:14:05.036Z,101193.88
2023-04-21T17:17:08.926Z,101188.47
2023-04-21T17:20:15.436Z,101190.69
2023-04-21T17:23:19.108Z,101189.75
2023-04-21T17:26:23.435Z,101180.44
2023-04-21T17:29:28.221Z,101184.31
2023-04-21T17:32:33.648Z,101184.88
2023-04-21T17:35:43.698Z,101179.19
2023-04-21T17:38:52.569Z,101175.28
2023-04-21T17:41:56.205Z,101174.03
2023-04-21T17:44:59.652Z,101171.50
2023-04-21T17:48:03.474Z,101167.41
2023-04-21T17:51:09.359Z,101178.56
2023-04-21T17:54:12.978Z,101177.22
2023-04-21T17:57:16.636Z,101172.28
2023-04-21T18:00:22.078Z,101176.25
2023-04-21T18:03:25.785Z,101171.50
2023-04-21T18:06:31.936Z,101175.63
2023-04-21T18:09:35.550Z,101179.72
2023-04-21T18:12:39.126Z,101184.03
2023-04-21T18:15:42.733Z,101182.31
2023-04-21T18:18:47.608Z,101175.66
2023-04-21T18:21:52.924Z,101180.34
2023-04-21T18:24:56.940Z,101188.31
2023-04-21T18:28:00.508Z,101180.81
2023-04-21T18:31:04.684Z,101175.00
2023-04-21T18:34:09.069Z,101177.47
2023-04-21T18:37:14.618Z,101173.00
2023-04-21T18:40:18.654Z,101178.13
2023-04-21T18:43:22.633Z,101176.41
2023-04-21T18:46:26.398Z,101177.94
2023-04-21T18:49:30.014Z,101167.56
2023-04-21T18:52:35.046Z,101166.50
2023-04-21T18:55:39.142Z,101177.44
2023-04-21T18:58:42.652Z,101170.59
2023-04-21T19:01:46.529Z,101170.72
2023-04-21T19:04:50.420Z,101174.53
2023-04-21T19:07:55.677Z,101163.28
2023-04-21T19:10:59.547Z,101167.88
2023-04-21T19:14:03.127Z,101166.41
2023-04-21T19:17:06.853Z,101177.31
2023-04-21T19:20:12.421Z,101170.47
2023-04-21T19:23:17.274Z,101169.06
2023-04-21T19:26:21.911Z,101167.50
2023-04-21T19:29:25.460Z,101164.41
2023-04-21T19:32:29.359Z,101161.13
2023-04-21T19:35:33.782Z,101166.72
2023-04-21T19:38:38.990Z,101160.97
2023-04-21T19:41:43.055Z,101162.75
2023-04-21T19:44:46.621Z,101168.56
2023-04-21T19:47:50.197Z,101169.81
2023-04-21T19:50:53.875Z,101167.81
2023-04-21T19:54:09.953Z,101176.94
2023-04-21T19:57:15.252Z,101177.97
2023-04-21T20:00:19.055Z,101178.97
2023-04-21T20:03:22.787Z,101181.03
2023-04-21T20:06:27.058Z,101167.94
2023-04-21T20:09:32.204Z,101169.16
2023-04-21T20:12:36.249Z,101172.81
2023-04-21T20:15:40.265Z,101170.81
2023-04-21T20:18:43.934Z,101168.56
2023-04-21T20:21:47.618Z,101172.25
2023-04-21T20:24:54.079Z,101175.16
2023-04-21T20:27:58.297Z,101175.06
2023-04-21T20:31:01.884Z,101170.03
2023-04-21T20:34:05.602Z,101181.09
2023-04-21T20:37:10.799Z,101174.81
2023-04-21T20:40:15.900Z,101171.91
2023-04-21T20:43:20.008Z,101169.41
2023-04-21T20:46:23.806Z,101175.19
2023-04-21T20:49:28.197Z,101174.53
2023-04-21T20:52:31.889Z,101172.53
2023-04-21T20:55:37.042Z,101172.88
2023-04-21T20:58:41.471Z,101175.66
2023-04-21T21:01:45.149Z,101175.53
2023-04-21T21:04:48.738Z,101176.75
2023-04-21T21:07:52.383Z,101164.75
2023-04-21T21:10:57.353Z,101165.03
2023-04-21T21:14:00.784Z,101164.13
2023-04-21T21:17:04.663Z,101168.06
2023-04-21T21:20:10.233Z,101172.91
2023-04-21T21:23:13.904Z,101175.41
2023-04-21T21:26:18.910Z,101189.00
2023-04-21T21:29:22.448Z,101183.88
2023-04-21T21:32:25.955Z,101182.38
2023-04-21T21:35:29.665Z,101173.75
2023-04-21T21:38:33.628Z,101177.63
2023-04-21T21:41:38.549Z,101157.53
2023-04-21T21:44:42.000Z,101167.31
2023-04-21T21:47:45.970Z,101169.81
2023-04-21T21:50:49.554Z,101177.22
2023-04-21T21:53:53.035Z,101167.66
2023-04-21T21:56:58.395Z,101158.88
2023-04-21T22:00:02.290Z,101161.97
2023-04-21T22:03:06.396Z,101163.00
2023-04-21T22:06:10.139Z,101158.78
2023-04-21T22:09:13.591Z,101160.50
2023-04-21T22:12:18.511Z,101161.72
2023-04-21T22:15:22.137Z,101163.69
2023-04-21T22:18:25.685Z,101159.59
2023-04-21T22:21:29.296Z,101159.63
2023-04-21T22:24:32.792Z,101161.59
2023-04-21T22:27:37.728Z,101162.63
2023-04-21T22:30:41.369Z,101167.84
2023-04-21T22:33:44.900Z,101160.97
2023-04-21T22:36:48.530Z,101159.25
2023-04-21T22:39:52.069Z,101159.50
2023-04-21T22:42:57.077Z,101154.44
2023-04-21T22:46:02.121Z,101162.53
2023-04-21T22:49:05.808Z,101160.97
2023-04-21T22:52:09.352Z,101145.31
2023-04-21T22:55:12.911Z,101152.44
2023-04-21T22:58:17.844Z,101147.41
2023-04-21T23:01:21.498Z,101152.72
2023-04-21T23:04:25.179Z,101158.06
2023-04-21T23:07:28.766Z,101150.38
2023-04-21T23:10:32.372Z,101145.28
2023-04-21T23:13:37.351Z,101143.91
2023-04-21T23:16:40.798Z,101136.94
2023-04-21T23:19:44.431Z,101139.16
2023-04-21T23:22:47.894Z,101144.34
2023-04-21T23:25:51.435Z,101134.84
2023-04-21T23:28:56.232Z,101140.94
2023-04-21T23:31:59.869Z,101133.31
2023-04-21T23:35:03.449Z,101132.78
2023-04-21T23:38:07.023Z,101126.81
2023-04-21T23:41:10.581Z,101122.69
2023-04-21T23:44:15.469Z,101116.53
2023-04-21T23:47:18.938Z,101115.72
2023-04-21T23:50:22.540Z,101112.16
2023-04-21T23:53:26.193Z,101111.44
2023-04-21T23:56:30.110Z,101108.94
2023-04-21T23:59:35.106Z,101102.94
